sensor_id;sensor_type;location;lat;lon;timestamp;temperature;humidity
36652;DHT22;53334;51.976;20.144;2023-08-20T00:01:39;27.00;58.90
36652;DHT22;53334;51.976;20.144;2023-08-20T00:04:12;27.00;58.90
36652;DHT22;53334;51.976;20.144;2023-08-20T00:06:47;27.00;58.90
36652;DHT22;53334;51.976;20.144;2023-08-20T00:09:20;27.00;58.90
36652;DHT22;53334;51.976;20.144;2023-08-20T00:11:55;27.00;58.90
36652;DHT22;53334;51.976;20.144;2023-08-20T00:14:54;27.00;58.90
36652;DHT22;53334;51.976;20.144;2023-08-20T00:17:30;27.00;59.00
36652;DHT22;53334;51.976;20.144;2023-08-20T00:20:06;27.00;58.90
36652;DHT22;53334;51.976;20.144;2023-08-20T00:22:42;27.00;59.00
36652;DHT22;53334;51.976;20.144;2023-08-20T00:25:18;27.00;59.00
36652;DHT22;53334;51.976;20.144;2023-08-20T00:27:51;27.00;59.00
36652;DHT22;53334;51.976;20.144;2023-08-20T00:30:24;27.00;59.00
36652;DHT22;53334;51.976;20.144;2023-08-20T00:32:59;27.00;59.00
36652;DHT22;53334;51.976;20.144;2023-08-20T00:35:32;27.00;59.00
36652;DHT22;53334;51.976;20.144;2023-08-20T00:38:06;27.00;59.00
36652;DHT22;53334;51.976;20.144;2023-08-20T00:40:39;27.00;59.00
36652;DHT22;53334;51.976;20.144;2023-08-20T00:43:12;27.00;59.10
36652;DHT22;53334;51.976;20.144;2023-08-20T00:45:46;27.00;59.10
36652;DHT22;53334;51.976;20.144;2023-08-20T00:48:21;27.00;59.10
36652;DHT22;53334;51.976;20.144;2023-08-20T00:50:54;27.00;59.20
36652;DHT22;53334;51.976;20.144;2023-08-20T00:53:28;27.00;59.30
36652;DHT22;53334;51.976;20.144;2023-08-20T00:56:01;27.00;59.30
36652;DHT22;53334;51.976;20.144;2023-08-20T00:58:35;27.00;59.40
36652;DHT22;53334;51.976;20.144;2023-08-20T01:01:08;27.00;59.40
36652;DHT22;53334;51.976;20.144;2023-08-20T01:03:43;27.00;59.40
36652;DHT22;53334;51.976;20.144;2023-08-20T01:06:22;27.00;59.40
36652;DHT22;53334;51.976;20.144;2023-08-20T01:09:03;27.00;59.40
36652;DHT22;53334;51.976;20.144;2023-08-20T01:11:45;27.10;59.50
36652;DHT22;53334;51.976;20.144;2023-08-20T01:14:21;27.00;59.50
36652;DHT22;53334;51.976;20.144;2023-08-20T01:16:54;27.00;59.40
36652;DHT22;53334;51.976;20.144;2023-08-20T01:19:28;27.10;59.50
36652;DHT22;53334;51.976;20.144;2023-08-20T01:22:29;27.10;59.60
36652;DHT22;53334;51.976;20.144;2023-08-20T01:25:09;27.10;59.70
36652;DHT22;53334;51.976;20.144;2023-08-20T01:27:54;27.10;59.60
36652;DHT22;53334;51.976;20.144;2023-08-20T01:30:33;27.10;59.80
36652;DHT22;53334;51.976;20.144;2023-08-20T01:33:07;27.10;59.80
36652;DHT22;53334;51.976;20.144;2023-08-20T01:38:41;27.10;60.00
36652;DHT22;53334;51.976;20.144;2023-08-20T01:41:15;27.10;59.70
36652;DHT22;53334;51.976;20.144;2023-08-20T01:43:48;27.10;59.80
36652;DHT22;53334;51.976;20.144;2023-08-20T01:46:23;27.00;59.70
36652;DHT22;53334;51.976;20.144;2023-08-20T01:48:56;27.00;59.80
36652;DHT22;53334;51.976;20.144;2023-08-20T01:51:30;27.10;59.80
36652;DHT22;53334;51.976;20.144;2023-08-20T01:54:04;27.10;59.80
36652;DHT22;53334;51.976;20.144;2023-08-20T01:56:38;27.00;59.70
36652;DHT22;53334;51.976;20.144;2023-08-20T01:59:12;27.10;60.30
36652;DHT22;53334;51.976;20.144;2023-08-20T02:01:46;27.10;59.80
36652;DHT22;53334;51.976;20.144;2023-08-20T02:04:20;27.10;59.70
36652;DHT22;53334;51.976;20.144;2023-08-20T02:06:53;27.00;59.70
36652;DHT22;53334;51.976;20.144;2023-08-20T02:09:26;27.10;59.80
36652;DHT22;53334;51.976;20.144;2023-08-20T02:12:00;27.10;59.80
36652;DHT22;53334;51.976;20.144;2023-08-20T02:14:33;27.10;59.80
36652;DHT22;53334;51.976;20.144;2023-08-20T02:17:09;27.10;59.80
36652;DHT22;53334;51.976;20.144;2023-08-20T02:19:44;27.10;59.80
36652;DHT22;53334;51.976;20.144;2023-08-20T02:22:17;27.10;59.90
36652;DHT22;53334;51.976;20.144;2023-08-20T02:24:52;27.10;59.90
36652;DHT22;53334;51.976;20.144;2023-08-20T02:27:26;27.10;59.80
36652;DHT22;53334;51.976;20.144;2023-08-20T02:29:59;27.10;59.80
36652;DHT22;53334;51.976;20.144;2023-08-20T02:32:36;27.10;59.80
36652;DHT22;53334;51.976;20.144;2023-08-20T02:35:09;27.10;59.90
36652;DHT22;53334;51.976;20.144;2023-08-20T02:37:44;27.10;59.90
36652;DHT22;53334;51.976;20.144;2023-08-20T02:40:18;27.10;59.80
36652;DHT22;53334;51.976;20.144;2023-08-20T02:42:51;27.10;59.80
36652;DHT22;53334;51.976;20.144;2023-08-20T02:45:24;27.10;59.80
36652;DHT22;53334;51.976;20.144;2023-08-20T02:47:59;27.10;59.90
36652;DHT22;53334;51.976;20.144;2023-08-20T02:50:33;27.10;59.80
36652;DHT22;53334;51.976;20.144;2023-08-20T02:53:07;27.10;59.80
36652;DHT22;53334;51.976;20.144;2023-08-20T02:55:40;27.10;59.80
36652;DHT22;53334;51.976;20.144;2023-08-20T02:58:14;27.10;59.80
36652;DHT22;53334;51.976;20.144;2023-08-20T03:00:47;27.10;59.90
36652;DHT22;53334;51.976;20.144;2023-08-20T03:03:22;27.10;59.80
36652;DHT22;53334;51.976;20.144;2023-08-20T03:05:55;27.10;59.90
36652;DHT22;53334;51.976;20.144;2023-08-20T03:08:29;27.10;59.80
36652;DHT22;53334;51.976;20.144;2023-08-20T03:11:02;27.10;59.90
36652;DHT22;53334;51.976;20.144;2023-08-20T03:13:36;27.10;60.00
36652;DHT22;53334;51.976;20.144;2023-08-20T03:16:09;27.10;60.00
36652;DHT22;53334;51.976;20.144;2023-08-20T03:18:44;27.10;60.00
36652;DHT22;53334;51.976;20.144;2023-08-20T03:21:17;27.10;60.00
36652;DHT22;53334;51.976;20.144;2023-08-20T03:23:50;27.10;60.00
36652;DHT22;53334;51.976;20.144;2023-08-20T03:26:24;27.10;60.00
36652;DHT22;53334;51.976;20.144;2023-08-20T03:28:57;27.10;60.00
36652;DHT22;53334;51.976;20.144;2023-08-20T03:31:31;27.10;60.00
36652;DHT22;53334;51.976;20.144;2023-08-20T03:34:06;27.20;60.50
36652;DHT22;53334;51.976;20.144;2023-08-20T03:36:42;27.10;60.00
36652;DHT22;53334;51.976;20.144;2023-08-20T03:39:16;27.10;59.90
36652;DHT22;53334;51.976;20.144;2023-08-20T03:41:50;27.10;60.00
36652;DHT22;53334;51.976;20.144;2023-08-20T03:44:23;27.20;60.00
36652;DHT22;53334;51.976;20.144;2023-08-20T03:46:57;27.10;60.00
36652;DHT22;53334;51.976;20.144;2023-08-20T03:49:32;27.20;60.00
36652;DHT22;53334;51.976;20.144;2023-08-20T03:52:06;27.10;60.00
36652;DHT22;53334;51.976;20.144;2023-08-20T03:54:39;27.20;60.00
36652;DHT22;53334;51.976;20.144;2023-08-20T03:57:12;27.20;60.10
36652;DHT22;53334;51.976;20.144;2023-08-20T03:59:45;27.20;60.00
36652;DHT22;53334;51.976;20.144;2023-08-20T04:02:19;27.20;60.00
36652;DHT22;53334;51.976;20.144;2023-08-20T04:04:54;27.20;60.00
36652;DHT22;53334;51.976;20.144;2023-08-20T04:07:29;27.20;60.10
36652;DHT22;53334;51.976;20.144;2023-08-20T04:10:02;27.10;60.00
36652;DHT22;53334;51.976;20.144;2023-08-20T04:12:36;27.20;60.00
36652;DHT22;53334;51.976;20.144;2023-08-20T04:15:10;27.20;60.00
36652;DHT22;53334;51.976;20.144;2023-08-20T04:17:44;27.20;60.00
36652;DHT22;53334;51.976;20.144;2023-08-20T04:20:19;27.20;60.00
36652;DHT22;53334;51.976;20.144;2023-08-20T04:22:52;27.20;60.00
36652;DHT22;53334;51.976;20.144;2023-08-20T04:25:26;27.20;60.00
36652;DHT22;53334;51.976;20.144;2023-08-20T04:28:00;27.20;60.00
36652;DHT22;53334;51.976;20.144;2023-08-20T04:30:35;27.20;60.00
36652;DHT22;53334;51.976;20.144;2023-08-20T04:33:10;27.20;60.10
36652;DHT22;53334;51.976;20.144;2023-08-20T04:35:50;27.20;60.00
36652;DHT22;53334;51.976;20.144;2023-08-20T04:38:23;27.20;60.10
36652;DHT22;53334;51.976;20.144;2023-08-20T04:40:56;27.20;60.10
36652;DHT22;53334;51.976;20.144;2023-08-20T04:43:30;27.20;60.10
36652;DHT22;53334;51.976;20.144;2023-08-20T04:46:05;27.20;60.10
36652;DHT22;53334;51.976;20.144;2023-08-20T04:48:38;27.20;60.10
36652;DHT22;53334;51.976;20.144;2023-08-20T04:51:13;27.20;60.10
36652;DHT22;53334;51.976;20.144;2023-08-20T04:53:46;27.20;60.10
36652;DHT22;53334;51.976;20.144;2023-08-20T04:56:19;27.20;60.20
36652;DHT22;53334;51.976;20.144;2023-08-20T04:58:53;27.20;60.10
36652;DHT22;53334;51.976;20.144;2023-08-20T05:01:46;27.20;60.10
36652;DHT22;53334;51.976;20.144;2023-08-20T05:04:22;27.20;60.10
36652;DHT22;53334;51.976;20.144;2023-08-20T05:06:57;27.20;60.10
36652;DHT22;53334;51.976;20.144;2023-08-20T05:09:31;27.20;60.10
36652;DHT22;53334;51.976;20.144;2023-08-20T05:12:04;27.20;60.10
36652;DHT22;53334;51.976;20.144;2023-08-20T05:14:39;27.20;60.10
36652;DHT22;53334;51.976;20.144;2023-08-20T05:17:12;27.20;60.10
36652;DHT22;53334;51.976;20.144;2023-08-20T05:19:45;27.20;60.10
36652;DHT22;53334;51.976;20.144;2023-08-20T05:22:21;27.20;60.10
36652;DHT22;53334;51.976;20.144;2023-08-20T05:24:54;27.20;60.00
36652;DHT22;53334;51.976;20.144;2023-08-20T05:27:28;27.20;60.10
36652;DHT22;53334;51.976;20.144;2023-08-20T05:30:02;27.20;60.10
36652;DHT22;53334;51.976;20.144;2023-08-20T05:32:35;27.20;60.80
36652;DHT22;53334;51.976;20.144;2023-08-20T05:35:09;27.20;60.30
36652;DHT22;53334;51.976;20.144;2023-08-20T05:37:46;27.20;60.20
36652;DHT22;53334;51.976;20.144;2023-08-20T05:40:19;27.20;60.20
36652;DHT22;53334;51.976;20.144;2023-08-20T05:42:53;27.20;60.20
36652;DHT22;53334;51.976;20.144;2023-08-20T05:45:27;27.20;60.30
36652;DHT22;53334;51.976;20.144;2023-08-20T05:48:01;27.20;60.20
36652;DHT22;53334;51.976;20.144;2023-08-20T05:50:34;27.20;60.20
36652;DHT22;53334;51.976;20.144;2023-08-20T05:53:09;27.20;60.20
36652;DHT22;53334;51.976;20.144;2023-08-20T05:55:42;27.20;60.20
36652;DHT22;53334;51.976;20.144;2023-08-20T05:58:15;27.30;60.30
36652;DHT22;53334;51.976;20.144;2023-08-20T06:00:49;27.20;60.10
36652;DHT22;53334;51.976;20.144;2023-08-20T06:03:22;27.30;60.20
36652;DHT22;53334;51.976;20.144;2023-08-20T06:05:57;27.30;60.10
36652;DHT22;53334;51.976;20.144;2023-08-20T06:08:36;27.30;60.20
36652;DHT22;53334;51.976;20.144;2023-08-20T06:11:10;27.30;60.10
36652;DHT22;53334;51.976;20.144;2023-08-20T06:13:43;27.30;60.10
36652;DHT22;53334;51.976;20.144;2023-08-20T06:16:17;27.30;60.10
36652;DHT22;53334;51.976;20.144;2023-08-20T06:18:50;27.20;60.00
36652;DHT22;53334;51.976;20.144;2023-08-20T06:21:26;27.30;60.10
36652;DHT22;53334;51.976;20.144;2023-08-20T06:24:01;27.20;60.00
36652;DHT22;53334;51.976;20.144;2023-08-20T06:26:35;27.30;60.10
36652;DHT22;53334;51.976;20.144;2023-08-20T06:29:08;27.30;60.00
36652;DHT22;53334;51.976;20.144;2023-08-20T06:31:42;27.30;60.00
36652;DHT22;53334;51.976;20.144;2023-08-20T06:34:15;27.30;60.00
36652;DHT22;53334;51.976;20.144;2023-08-20T06:36:49;27.30;60.00
36652;DHT22;53334;51.976;20.144;2023-08-20T06:39:23;27.30;60.00
36652;DHT22;53334;51.976;20.144;2023-08-20T06:41:56;27.30;60.00
36652;DHT22;53334;51.976;20.144;2023-08-20T06:44:30;27.30;60.10
36652;DHT22;53334;51.976;20.144;2023-08-20T06:47:04;27.30;59.90
36652;DHT22;53334;51.976;20.144;2023-08-20T06:49:37;27.30;59.90
36652;DHT22;53334;51.976;20.144;2023-08-20T06:52:10;27.30;60.40
36652;DHT22;53334;51.976;20.144;2023-08-20T06:54:45;27.30;60.10
36652;DHT22;53334;51.976;20.144;2023-08-20T06:57:19;27.30;60.30
36652;DHT22;53334;51.976;20.144;2023-08-20T06:59:52;27.30;60.40
36652;DHT22;53334;51.976;20.144;2023-08-20T07:02:25;27.30;60.40
36652;DHT22;53334;51.976;20.144;2023-08-20T07:04:59;27.30;60.50
36652;DHT22;53334;51.976;20.144;2023-08-20T07:07:32;27.30;60.60
36652;DHT22;53334;51.976;20.144;2023-08-20T07:10:08;27.40;60.80
36652;DHT22;53334;51.976;20.144;2023-08-20T07:12:41;27.40;60.90
36652;DHT22;53334;51.976;20.144;2023-08-20T07:15:15;27.40;60.80
36652;DHT22;53334;51.976;20.144;2023-08-20T07:17:48;27.40;60.90
36652;DHT22;53334;51.976;20.144;2023-08-20T07:20:21;27.40;60.90
36652;DHT22;53334;51.976;20.144;2023-08-20T07:22:55;27.40;60.90
36652;DHT22;53334;51.976;20.144;2023-08-20T07:25:30;27.40;61.00
36652;DHT22;53334;51.976;20.144;2023-08-20T07:28:04;27.40;61.10
36652;DHT22;53334;51.976;20.144;2023-08-20T07:30:37;27.40;61.10
36652;DHT22;53334;51.976;20.144;2023-08-20T07:33:11;27.40;61.00
36652;DHT22;53334;51.976;20.144;2023-08-20T07:35:44;27.50;61.00
36652;DHT22;53334;51.976;20.144;2023-08-20T07:38:17;27.50;61.00
36652;DHT22;53334;51.976;20.144;2023-08-20T07:40:52;27.50;61.10
36652;DHT22;53334;51.976;20.144;2023-08-20T07:43:25;27.50;61.10
36652;DHT22;53334;51.976;20.144;2023-08-20T07:45:58;27.50;61.20
36652;DHT22;53334;51.976;20.144;2023-08-20T07:48:32;27.50;61.20
36652;DHT22;53334;51.976;20.144;2023-08-20T07:51:05;27.50;61.40
36652;DHT22;53334;51.976;20.144;2023-08-20T07:53:39;27.50;61.50
36652;DHT22;53334;51.976;20.144;2023-08-20T07:56:14;27.50;61.50
36652;DHT22;53334;51.976;20.144;2023-08-20T07:58:47;27.50;61.50
36652;DHT22;53334;51.976;20.144;2023-08-20T08:01:20;27.50;61.50
36652;DHT22;53334;51.976;20.144;2023-08-20T08:03:54;27.60;61.50
36652;DHT22;53334;51.976;20.144;2023-08-20T08:06:28;27.60;61.50
36652;DHT22;53334;51.976;20.144;2023-08-20T08:09:18;27.60;61.60
36652;DHT22;53334;51.976;20.144;2023-08-20T08:11:53;27.60;61.80
36652;DHT22;53334;51.976;20.144;2023-08-20T08:14:27;27.60;61.20
36652;DHT22;53334;51.976;20.144;2023-08-20T08:17:00;27.60;60.50
36652;DHT22;53334;51.976;20.144;2023-08-20T08:19:33;27.50;60.40
36652;DHT22;53334;51.976;20.144;2023-08-20T08:22:07;27.50;59.20
36652;DHT22;53334;51.976;20.144;2023-08-20T08:24:40;27.50;58.70
36652;DHT22;53334;51.976;20.144;2023-08-20T08:27:15;27.50;58.20
36652;DHT22;53334;51.976;20.144;2023-08-20T08:29:50;27.40;57.70
36652;DHT22;53334;51.976;20.144;2023-08-20T08:32:23;27.40;57.40
36652;DHT22;53334;51.976;20.144;2023-08-20T08:34:57;27.40;57.00
36652;DHT22;53334;51.976;20.144;2023-08-20T08:37:30;27.40;56.70
36652;DHT22;53334;51.976;20.144;2023-08-20T08:40:04;27.40;56.40
36652;DHT22;53334;51.976;20.144;2023-08-20T08:42:40;27.30;56.10
36652;DHT22;53334;51.976;20.144;2023-08-20T08:45:14;27.30;55.70
36652;DHT22;53334;51.976;20.144;2023-08-20T08:47:49;27.30;55.50
36652;DHT22;53334;51.976;20.144;2023-08-20T08:50:22;27.30;55.30
36652;DHT22;53334;51.976;20.144;2023-08-20T08:52:56;27.30;55.20
36652;DHT22;53334;51.976;20.144;2023-08-20T08:55:30;27.30;55.20
36652;DHT22;53334;51.976;20.144;2023-08-20T08:58:04;27.30;55.20
36652;DHT22;53334;51.976;20.144;2023-08-20T09:00:38;27.20;54.90
36652;DHT22;53334;51.976;20.144;2023-08-20T09:03:11;27.20;54.70
36652;DHT22;53334;51.976;20.144;2023-08-20T09:05:48;27.10;54.40
36652;DHT22;53334;51.976;20.144;2023-08-20T09:08:25;27.00;53.80
36652;DHT22;53334;51.976;20.144;2023-08-20T09:11:00;27.00;53.70
36652;DHT22;53334;51.976;20.144;2023-08-20T09:13:36;26.90;53.60
36652;DHT22;53334;51.976;20.144;2023-08-20T09:16:11;26.90;53.30
36652;DHT22;53334;51.976;20.144;2023-08-20T09:18:45;26.80;53.00
36652;DHT22;53334;51.976;20.144;2023-08-20T09:21:18;26.80;53.20
36652;DHT22;53334;51.976;20.144;2023-08-20T09:23:52;26.70;53.10
36652;DHT22;53334;51.976;20.144;2023-08-20T09:26:25;26.70;53.10
36652;DHT22;53334;51.976;20.144;2023-08-20T09:29:00;26.60;53.00
36652;DHT22;53334;51.976;20.144;2023-08-20T09:31:39;26.60;54.00
36652;DHT22;53334;51.976;20.144;2023-08-20T09:34:15;26.60;54.70
36652;DHT22;53334;51.976;20.144;2023-08-20T09:36:48;26.60;54.40
36652;DHT22;53334;51.976;20.144;2023-08-20T09:39:22;26.70;53.50
36652;DHT22;53334;51.976;20.144;2023-08-20T09:41:55;26.70;52.90
36652;DHT22;53334;51.976;20.144;2023-08-20T09:44:33;26.70;52.30
36652;DHT22;53334;51.976;20.144;2023-08-20T09:47:09;26.80;52.10
36652;DHT22;53334;51.976;20.144;2023-08-20T09:49:44;26.80;51.80
36652;DHT22;53334;51.976;20.144;2023-08-20T09:52:24;26.80;51.60
36652;DHT22;53334;51.976;20.144;2023-08-20T09:55:00;26.90;51.20
36652;DHT22;53334;51.976;20.144;2023-08-20T09:57:38;26.90;51.30
36652;DHT22;53334;51.976;20.144;2023-08-20T10:00:17;26.90;51.00
36652;DHT22;53334;51.976;20.144;2023-08-20T10:02:51;27.00;50.90
36652;DHT22;53334;51.976;20.144;2023-08-20T10:05:26;27.00;50.40
36652;DHT22;53334;51.976;20.144;2023-08-20T10:08:00;27.00;50.30
36652;DHT22;53334;51.976;20.144;2023-08-20T10:10:36;27.00;50.10
36652;DHT22;53334;51.976;20.144;2023-08-20T10:13:09;27.00;49.80
36652;DHT22;53334;51.976;20.144;2023-08-20T10:15:44;27.00;49.90
36652;DHT22;53334;51.976;20.144;2023-08-20T10:18:19;27.00;49.50
36652;DHT22;53334;51.976;20.144;2023-08-20T10:20:57;27.10;49.10
36652;DHT22;53334;51.976;20.144;2023-08-20T10:23:35;27.10;49.10
36652;DHT22;53334;51.976;20.144;2023-08-20T10:26:09;27.10;48.60
36652;DHT22;53334;51.976;20.144;2023-08-20T10:28:42;27.10;48.50
36652;DHT22;53334;51.976;20.144;2023-08-20T10:31:17;27.10;48.50
36652;DHT22;53334;51.976;20.144;2023-08-20T10:33:54;27.10;48.50
36652;DHT22;53334;51.976;20.144;2023-08-20T10:36:28;27.10;48.30
36652;DHT22;53334;51.976;20.144;2023-08-20T10:39:05;27.10;49.50
36652;DHT22;53334;51.976;20.144;2023-08-20T10:41:38;27.10;48.50
36652;DHT22;53334;51.976;20.144;2023-08-20T10:44:11;27.10;48.70
36652;DHT22;53334;51.976;20.144;2023-08-20T10:46:50;27.10;48.80
36652;DHT22;53334;51.976;20.144;2023-08-20T10:49:24;27.10;49.00
36652;DHT22;53334;51.976;20.144;2023-08-20T10:52:02;27.10;48.70
36652;DHT22;53334;51.976;20.144;2023-08-20T10:54:35;27.10;49.10
36652;DHT22;53334;51.976;20.144;2023-08-20T10:57:08;27.10;49.40
36652;DHT22;53334;51.976;20.144;2023-08-20T10:59:41;27.10;49.30
36652;DHT22;53334;51.976;20.144;2023-08-20T11:02:16;27.10;48.70
36652;DHT22;53334;51.976;20.144;2023-08-20T11:04:51;27.10;48.80
36652;DHT22;53334;51.976;20.144;2023-08-20T11:07:25;27.10;48.50
36652;DHT22;53334;51.976;20.144;2023-08-20T11:09:59;27.10;48.60
36652;DHT22;53334;51.976;20.144;2023-08-20T11:12:34;27.10;48.70
36652;DHT22;53334;51.976;20.144;2023-08-20T11:15:09;27.10;48.50
36652;DHT22;53334;51.976;20.144;2023-08-20T11:17:45;27.00;48.20
36652;DHT22;53334;51.976;20.144;2023-08-20T11:20:23;27.00;47.90
36652;DHT22;53334;51.976;20.144;2023-08-20T11:22:58;27.00;48.10
36652;DHT22;53334;51.976;20.144;2023-08-20T11:25:31;27.00;47.50
36652;DHT22;53334;51.976;20.144;2023-08-20T11:28:05;27.00;47.40
36652;DHT22;53334;51.976;20.144;2023-08-20T11:30:38;27.00;47.00
36652;DHT22;53334;51.976;20.144;2023-08-20T11:33:14;27.00;46.90
36652;DHT22;53334;51.976;20.144;2023-08-20T11:35:47;27.00;47.10
36652;DHT22;53334;51.976;20.144;2023-08-20T11:38:23;27.00;47.30
36652;DHT22;53334;51.976;20.144;2023-08-20T11:40:57;27.00;46.90
36652;DHT22;53334;51.976;20.144;2023-08-20T11:43:32;27.00;46.90
36652;DHT22;53334;51.976;20.144;2023-08-20T11:46:06;27.00;46.20
36652;DHT22;53334;51.976;20.144;2023-08-20T11:49:06;27.00;46.50
36652;DHT22;53334;51.976;20.144;2023-08-20T11:51:41;27.00;47.60
36652;DHT22;53334;51.976;20.144;2023-08-20T11:54:16;26.90;46.50
36652;DHT22;53334;51.976;20.144;2023-08-20T11:56:51;27.00;46.40
36652;DHT22;53334;51.976;20.144;2023-08-20T11:59:24;26.90;46.20
36652;DHT22;53334;51.976;20.144;2023-08-20T12:01:59;26.90;46.10
36652;DHT22;53334;51.976;20.144;2023-08-20T12:04:34;26.90;45.70
36652;DHT22;53334;51.976;20.144;2023-08-20T12:07:09;26.90;45.60
36652;DHT22;53334;51.976;20.144;2023-08-20T12:09:43;26.90;45.30
36652;DHT22;53334;51.976;20.144;2023-08-20T12:12:19;26.90;45.40
36652;DHT22;53334;51.976;20.144;2023-08-20T12:14:52;26.90;44.90
36652;DHT22;53334;51.976;20.144;2023-08-20T12:17:26;26.90;45.10
36652;DHT22;53334;51.976;20.144;2023-08-20T12:20:01;26.90;45.30
36652;DHT22;53334;51.976;20.144;2023-08-20T12:22:39;26.90;45.40
36652;DHT22;53334;51.976;20.144;2023-08-20T12:25:12;26.90;45.20
36652;DHT22;53334;51.976;20.144;2023-08-20T12:27:45;26.90;45.20
36652;DHT22;53334;51.976;20.144;2023-08-20T12:30:19;26.90;45.10
36652;DHT22;53334;51.976;20.144;2023-08-20T12:32:52;26.80;44.80
36652;DHT22;53334;51.976;20.144;2023-08-20T12:35:27;26.80;44.80
36652;DHT22;53334;51.976;20.144;2023-08-20T12:38:00;26.90;44.50
36652;DHT22;53334;51.976;20.144;2023-08-20T12:40:34;26.80;44.40
36652;DHT22;53334;51.976;20.144;2023-08-20T12:43:07;26.80;44.50
36652;DHT22;53334;51.976;20.144;2023-08-20T12:45:42;26.80;44.60
36652;DHT22;53334;51.976;20.144;2023-08-20T12:48:16;26.80;44.10
36652;DHT22;53334;51.976;20.144;2023-08-20T12:50:51;26.80;43.80
36652;DHT22;53334;51.976;20.144;2023-08-20T12:53:24;26.80;43.50
36652;DHT22;53334;51.976;20.144;2023-08-20T12:55:58;26.80;43.20
36652;DHT22;53334;51.976;20.144;2023-08-20T12:58:33;26.80;43.90
36652;DHT22;53334;51.976;20.144;2023-08-20T13:01:07;26.80;43.40
36652;DHT22;53334;51.976;20.144;2023-08-20T13:03:41;26.90;43.30
36652;DHT22;53334;51.976;20.144;2023-08-20T13:06:17;26.90;43.00
36652;DHT22;53334;51.976;20.144;2023-08-20T13:08:51;26.90;43.40
36652;DHT22;53334;51.976;20.144;2023-08-20T13:11:25;26.90;43.80
36652;DHT22;53334;51.976;20.144;2023-08-20T13:14:00;26.90;43.50
36652;DHT22;53334;51.976;20.144;2023-08-20T13:16:34;26.90;42.90
36652;DHT22;53334;51.976;20.144;2023-08-20T13:19:08;26.80;42.90
36652;DHT22;53334;51.976;20.144;2023-08-20T13:21:43;26.90;42.80
36652;DHT22;53334;51.976;20.144;2023-08-20T13:24:16;26.80;44.80
36652;DHT22;53334;51.976;20.144;2023-08-20T13:26:51;26.80;43.00
36652;DHT22;53334;51.976;20.144;2023-08-20T13:29:24;26.80;43.20
36652;DHT22;53334;51.976;20.144;2023-08-20T13:31:58;26.80;43.00
36652;DHT22;53334;51.976;20.144;2023-08-20T13:34:32;26.80;42.70
36652;DHT22;53334;51.976;20.144;2023-08-20T13:37:07;26.80;43.10
36652;DHT22;53334;51.976;20.144;2023-08-20T13:39:40;26.80;43.10
36652;DHT22;53334;51.976;20.144;2023-08-20T13:42:14;26.80;43.20
36652;DHT22;53334;51.976;20.144;2023-08-20T13:44:47;26.80;43.50
36652;DHT22;53334;51.976;20.144;2023-08-20T13:47:21;26.80;45.00
36652;DHT22;53334;51.976;20.144;2023-08-20T13:49:54;26.80;43.10
36652;DHT22;53334;51.976;20.144;2023-08-20T13:52:29;26.80;42.90
36652;DHT22;53334;51.976;20.144;2023-08-20T13:55:02;26.80;42.60
36652;DHT22;53334;51.976;20.144;2023-08-20T13:57:37;26.80;42.80
36652;DHT22;53334;51.976;20.144;2023-08-20T14:00:12;26.80;42.20
36652;DHT22;53334;51.976;20.144;2023-08-20T14:02:46;26.80;42.60
36652;DHT22;53334;51.976;20.144;2023-08-20T14:05:21;26.80;42.60
36652;DHT22;53334;51.976;20.144;2023-08-20T14:07:56;26.80;42.70
36652;DHT22;53334;51.976;20.144;2023-08-20T14:10:30;26.80;42.30
36652;DHT22;53334;51.976;20.144;2023-08-20T14:13:03;26.80;42.50
36652;DHT22;53334;51.976;20.144;2023-08-20T14:15:36;26.80;41.80
36652;DHT22;53334;51.976;20.144;2023-08-20T14:18:10;26.80;43.00
36652;DHT22;53334;51.976;20.144;2023-08-20T14:20:43;26.70;43.30
36652;DHT22;53334;51.976;20.144;2023-08-20T14:23:18;26.70;44.70
36652;DHT22;53334;51.976;20.144;2023-08-20T14:25:51;26.70;46.20
36652;DHT22;53334;51.976;20.144;2023-08-20T14:28:26;26.70;46.90
36652;DHT22;53334;51.976;20.144;2023-08-20T14:31:02;26.70;47.80
36652;DHT22;53334;51.976;20.144;2023-08-20T14:33:35;26.70;49.70
36652;DHT22;53334;51.976;20.144;2023-08-20T14:36:08;26.80;50.00
36652;DHT22;53334;51.976;20.144;2023-08-20T14:38:43;26.80;50.60
36652;DHT22;53334;51.976;20.144;2023-08-20T14:41:16;26.80;50.90
36652;DHT22;53334;51.976;20.144;2023-08-20T14:43:49;26.90;51.50
36652;DHT22;53334;51.976;20.144;2023-08-20T14:46:23;26.90;51.40
36652;DHT22;53334;51.976;20.144;2023-08-20T14:48:56;26.90;51.40
36652;DHT22;53334;51.976;20.144;2023-08-20T14:51:30;26.90;51.80
36652;DHT22;53334;51.976;20.144;2023-08-20T14:54:05;27.00;51.80
36652;DHT22;53334;51.976;20.144;2023-08-20T14:56:38;27.00;51.90
36652;DHT22;53334;51.976;20.144;2023-08-20T14:59:11;27.00;51.90
36652;DHT22;53334;51.976;20.144;2023-08-20T15:01:45;27.10;51.80
36652;DHT22;53334;51.976;20.144;2023-08-20T15:04:19;27.10;51.80
36652;DHT22;53334;51.976;20.144;2023-08-20T15:06:52;27.10;51.40
36652;DHT22;53334;51.976;20.144;2023-08-20T15:09:26;27.10;51.50
36652;DHT22;53334;51.976;20.144;2023-08-20T15:12:00;27.10;51.80
36652;DHT22;53334;51.976;20.144;2023-08-20T15:14:33;27.10;51.40
36652;DHT22;53334;51.976;20.144;2023-08-20T15:17:06;27.20;50.60
36652;DHT22;53334;51.976;20.144;2023-08-20T15:19:40;27.10;50.00
36652;DHT22;53334;51.976;20.144;2023-08-20T15:22:13;27.20;49.80
36652;DHT22;53334;51.976;20.144;2023-08-20T15:24:48;27.20;49.60
36652;DHT22;53334;51.976;20.144;2023-08-20T15:27:24;27.20;49.30
36652;DHT22;53334;51.976;20.144;2023-08-20T15:29:57;27.20;49.20
36652;DHT22;53334;51.976;20.144;2023-08-20T15:32:31;27.20;48.90
36652;DHT22;53334;51.976;20.144;2023-08-20T15:35:05;27.20;48.90
36652;DHT22;53334;51.976;20.144;2023-08-20T15:37:39;27.20;49.00
36652;DHT22;53334;51.976;20.144;2023-08-20T15:40:13;27.20;49.10
36652;DHT22;53334;51.976;20.144;2023-08-20T15:42:47;27.20;49.00
36652;DHT22;53334;51.976;20.144;2023-08-20T15:45:20;27.20;48.70
36652;DHT22;53334;51.976;20.144;2023-08-20T15:47:53;27.20;48.50
36652;DHT22;53334;51.976;20.144;2023-08-20T15:50:27;27.20;48.30
36652;DHT22;53334;51.976;20.144;2023-08-20T15:53:00;27.10;47.90
36652;DHT22;53334;51.976;20.144;2023-08-20T15:55:36;27.10;47.70
36652;DHT22;53334;51.976;20.144;2023-08-20T15:58:09;27.10;47.30
36652;DHT22;53334;51.976;20.144;2023-08-20T16:00:42;27.10;47.10
36652;DHT22;53334;51.976;20.144;2023-08-20T16:03:16;27.10;46.90